DENVER INTL

KDEN (DEN)
Denver, Colorado
Towered

Vatsim Metar:
KDEN 240853Z 17010KT 10SM FEW120 BKN220 03/M02 A2979 RMK AO2 SLP045 T00281017 53001

No ATC Online

Traffic

Inbound:
Ident
Type
Name
ETA
Phase
WAT1048
A321
Jacob Toole KLAS
Taxiing In
WAT1079
B763
Jaymes Drury KSTL
Deplaning
WAT1115
C25C
Jake B KMSP
Taxiing In
WAT1072
B763
Michael Figueroa KLAX
10:01 Z
Descent
UAL676
B738
Gabriel Soares RJTT
11:17 Z
Climb
NKS2
A320
Ray Grimm KRNT
Boarding

Outbound:
Ident
Type
Name
Destination
Phase

SIDs

STARS

Alternate Minimums

Hot Spots